East Putney, Vermont
Current Conditions -  °F | °C
As of 10:55 PM on Friday 24 Oct 2014 (Local Time) from KEEN Reporting Station
Broken Clouds Broken Clouds  
Wind Chill: 46°   Ceiling: 3000
Heat Index: 46°   Visibility: 10mi
Dew Point: 36°   Wind: 0mph
Humidity: 66%   Direction: NA
Pressure: 29.79"   Gusts: NA
Location:  43.041°N, 72.534°W
Report Text: KEEN 250255Z AUTO 00000KT 10SM BKN030 08/02 A2979 RMK AO1 52007
Loading
Personal Weather Stations






























Interactive Weather Map
Tropical Storm Tracking
New forecast layout! Learn more

10-Day Weather Forecast

Advertisements
Track Severe Weather on mobile